Balsa 88 — 3FBP3 — position and weather

sailwx.info

Track history (hours):
 
Tides and Currents Weather Stations Pressure Air Temp Water Temp Dewpoint Dewpoint Depression Visibility Wind Speed Wind Dir Waves Ship Positions

Balsa 88

Last reported at 2017-Dec-11 15:10 UTC. Time now 2017-Dec-14 00:31 UTC.
Position N 36°56' W 076°23'.

Length 106 m; draft 4.1 m.

Type: Ship. MMSI: 373279000.

Date/timePositionNaut miles runAvg speedWind from/ knotsBaromVisibWave heightAir tempDewpointWater temp
2017-Dec-11 15:10N 36°56' W 076°23'0 0.0
2017-Dec-11 14:58N 36°56' W 076°23'0 0.0
2017-Dec-11 13:19N 36°56' W 076°23'0 0.0
2017-Dec-11 12:58N 36°56' W 076°23'0 0.0
2017-Dec-11 12:28N 36°56' W 076°23'0 0.0
2017-Dec-11 11:58N 36°56' W 076°23'0 0.0
2017-Dec-11 11:28N 36°56' W 076°23'0 0.0
2017-Dec-11 10:58N 36°56' W 076°23'0 0.0
2017-Dec-11 10:28N 36°56' W 076°23'0 0.0
2017-Dec-11 09:58N 36°56' W 076°23'0 0.1
2017-Dec-11 09:25N 36°56' W 076°23'0 0.0
2017-Dec-11 08:58N 36°56' W 076°23'0 0.0
2017-Dec-11 08:10N 36°56' W 076°23'0 0.0
2017-Dec-11 07:58N 36°56' W 076°23'0 0.0
2017-Dec-11 07:25N 36°56' W 076°23'0 0.0
2017-Dec-11 06:28N 36°56' W 076°23'0 0.0
2017-Dec-11 05:49N 36°56' W 076°23'0 0.0
2017-Dec-11 05:25N 36°56' W 076°23'0 0.0
2017-Dec-11 04:58N 36°56' W 076°23'0 0.0
2017-Dec-11 04:19N 36°56' W 076°23'0 0.0
2017-Dec-11 03:58N 36°56' W 076°23'0 0.0
2017-Dec-11 03:25N 36°56' W 076°23'0 0.0
2017-Dec-11 02:55N 36°56' W 076°23'0 0.0
2017-Dec-11 02:28N 36°56' W 076°23'0 0.0
2017-Dec-11 01:55N 36°56' W 076°23'0 0.0
2017-Dec-11 01:16N 36°56' W 076°23'0 0.0
2017-Dec-11 00:55N 36°56' W 076°23'0 0.0
2017-Dec-11 00:28N 36°56' W 076°23'0 0.0
2017-Dec-10 23:55N 36°56' W 076°23'0 0.0
2017-Dec-10 22:22N 36°56' W 076°23'0 0.0
2017-Dec-10 21:49N 36°56' W 076°23'0 0.0
2017-Dec-10 21:07N 36°56' W 076°23'0 0.1
2017-Dec-10 19:52N 36°56' W 076°23'0 0.0
2017-Dec-10 18:13N 36°56' W 076°23'0 0.0
2017-Dec-10 13:46N 36°56' W 076°23'0 0.0
2017-Dec-10 13:22N 36°56' W 076°23'0 0.0
2017-Dec-10 12:52N 36°56' W 076°23'0 0.0
2017-Dec-10 11:55N 36°56' W 076°23'0 0.0
2017-Dec-10 11:19N 36°56' W 076°23'0 0.0
2017-Dec-10 10:52N 36°56' W 076°23'0 0.0
2017-Dec-10 10:25N 36°56' W 076°23'0 0.0
2017-Dec-10 09:52N 36°56' W 076°23'0 0.1
2017-Dec-10 08:40N 36°56' W 076°23'1 4.8
2017-Dec-10 08:30N 36°57' W 076°22'810.8
2017-Dec-10 07:43N 37°00' W 076°12'412.2
2017-Dec-10 07:23N 36°59' W 076°07'411.8
2017-Dec-10 07:00N 36°57' W 076°02'5 9.7
2017-Dec-10 06:29N 36°57' W 075°56'4 7.9
2017-Dec-10 06:00N 36°57' W 075°51'0 0.0
2017-Dec-09 09:02N 36°57' W 075°51'0 8.3
2017-Dec-09 09:00N 36°56' W 075°51'4 8.7
2017-Dec-09 08:30N 36°56' W 075°57'5 9.4
2017-Dec-09 08:00N 36°57' W 076°02'510.9
2017-Dec-09 07:30N 36°59' W 076°09'810.2
2017-Dec-09 06:41N 36°59' W 076°19'210.7
2017-Dec-09 06:29N 36°57' W 076°21'2 0.2
2017-Dec-08 16:19N 36°56' W 076°24'0 0.0
2017-Dec-08 15:16N 36°56' W 076°24'0 0.0
2017-Dec-08 14:19N 36°56' W 076°24'0 0.2
2017-Dec-08 13:55N 36°56' W 076°24'0 0.1
2017-Dec-08 13:25N 36°56' W 076°24'0 0.0
2017-Dec-08 11:43N 36°56' W 076°24'0 0.0
2017-Dec-08 11:13N 36°56' W 076°24'0 0.0
2017-Dec-08 10:37N 36°56' W 076°24'0 0.0
2017-Dec-08 10:13N 36°56' W 076°24'0 0.0
2017-Dec-08 09:07N 36°56' W 076°24'0 0.0
2017-Dec-08 08:55N 36°56' W 076°24'0 0.0
2017-Dec-08 08:25N 36°56' W 076°24'0 0.0
2017-Dec-08 07:55N 36°56' W 076°24'0 0.1
2017-Dec-08 07:25N 36°56' W 076°24'0 0.1
2017-Dec-08 06:55N 36°56' W 076°24'0 0.1
2017-Dec-08 06:25N 36°56' W 076°24'0 0.0
2017-Dec-08 05:19N 36°56' W 076°24'0 0.0
2017-Dec-08 04:55N 36°56' W 076°24'0 0.0
2017-Dec-08 04:28N 36°56' W 076°24'0 0.0
2017-Dec-08 03:49N 36°56' W 076°24'0 0.0
2017-Dec-08 03:25N 36°56' W 076°24'0 0.0
2017-Dec-08 02:58N 36°56' W 076°24'0 0.1
2017-Dec-08 02:22N 36°56' W 076°24'0 0.1
2017-Dec-08 01:52N 36°56' W 076°24'0 0.1
2017-Dec-08 01:13N 36°56' W 076°24'0 0.0
2017-Dec-08 00:49N 36°56' W 076°24'0 0.0
2017-Dec-08 00:28N 36°56' W 076°24'0 0.0
2017-Dec-07 23:55N 36°56' W 076°24'0 0.0
2017-Dec-07 21:07N 36°56' W 076°24'0 0.0
2017-Dec-07 20:55N 36°56' W 076°24'0 0.0
2017-Dec-07 18:58N 36°56' W 076°24'0 0.1
2017-Dec-07 18:25N 36°56' W 076°24'0 0.0
2017-Dec-07 17:43N 36°56' W 076°24'0 0.0
2017-Dec-07 15:07N 36°56' W 076°24'0 0.0
2017-Dec-07 14:52N 36°56' W 076°24'0 0.0
2017-Dec-07 14:13N 36°56' W 076°24'0 0.0
2017-Dec-07 13:46N 36°56' W 076°24'0 0.2
2017-Dec-07 13:25N 36°56' W 076°24'0 0.1
2017-Dec-07 12:43N 36°56' W 076°24'0 0.0
2017-Dec-07 12:13N 36°56' W 076°24'0 0.0
2017-Dec-07 11:55N 36°56' W 076°24'0 0.0
2017-Dec-07 08:49N 36°56' W 076°24'0 0.0
2017-Dec-07 08:22N 36°56' W 076°24'0 0.0
2017-Dec-07 07:49N 36°56' W 076°24'0 0.0
2017-Dec-07 05:22N 36°56' W 076°24'0 0.2
2017-Dec-07 04:58N 36°56' W 076°24'0 0.0
2017-Dec-07 03:01N 36°56' W 076°24'0 0.0
2017-Dec-07 02:43N 36°56' W 076°24'0 0.0
2017-Dec-07 02:28N 36°56' W 076°24'0 0.0
2017-Dec-07 01:31N 36°56' W 076°24'0 0.1
2017-Dec-07 01:28N 36°56' W 076°24'0 0.1
2017-Dec-07 00:28N 36°56' W 076°24'  
2017-Dec-04 09:28N 36°56' W 076°24'0 0.0
2017-Dec-04 06:55N 36°56' W 076°24'0 0.0
2017-Dec-04 06:28N 36°56' W 076°24'0 0.0
2017-Dec-04 04:31N 36°56' W 076°24'0 0.1
2017-Dec-04 04:19N 36°56' W 076°24'0 0.0
2017-Dec-04 03:58N 36°56' W 076°24'0 0.0
2017-Dec-04 03:25N 36°56' W 076°24'0 0.0
2017-Dec-04 02:25N 36°56' W 076°24'0 0.0
2017-Dec-03 21:52N 36°56' W 076°24'0 0.0
2017-Dec-03 19:58N 36°56' W 076°24'0 0.0
2017-Dec-03 19:28N 36°56' W 076°24'0 0.0
2017-Dec-03 18:55N 36°56' W 076°24'0 0.0
2017-Dec-03 18:19N 36°56' W 076°23'0 0.0
2017-Dec-03 15:58N 36°56' W 076°24'0 0.0
2017-Dec-03 14:37N 36°56' W 076°24'0 0.0
2017-Dec-03 14:19N 36°56' W 076°24'0 0.0
2017-Dec-03 12:43N 36°56' W 076°24'0 0.0
2017-Dec-03 12:22N 36°56' W 076°24'0 0.0
2017-Dec-03 11:46N 36°56' W 076°24'0 0.0
2017-Dec-03 08:49N 36°56' W 076°24'0 0.0
2017-Dec-03 03:19N 36°56' W 076°24'0 0.2
2017-Dec-03 02:52N 36°56' W 076°24'0 0.0
2017-Dec-03 02:22N 36°56' W 076°24'0 0.0
2017-Dec-02 22:22N 36°56' W 076°24'1 3.7
2017-Dec-02 22:00N 36°57' W 076°22'712.8
2017-Dec-02 21:29N 37°01' W 076°15'712.5
2017-Dec-02 20:57N 36°59' W 076°07'511.7
2017-Dec-02 20:30N 36°57' W 076°01'5 9.6
2017-Dec-02 20:01N 36°57' W 075°55'4 8.4
2017-Dec-02 19:30N 36°57' W 075°50'  
Track history (hours):
 
Tides and Currents Weather Stations Pressure Air Temp Water Temp Dewpoint Dewpoint Depression Visibility Wind Speed Wind Dir Waves Ship Positions

Balsa 88

Last reported at 2017-Dec-11 15:10 UTC. Time now 2017-Dec-14 00:31 UTC.
Position N 36°56' W 076°23'.

Length 106 m; draft 4.1 m.

Type: Ship. MMSI: 373279000.

Date/timePositionNaut miles runAvg speedWind from/ knotsBaromVisibWave heightAir tempDewpointWater temp
2017-Dec-11 15:10N 36°56' W 076°23'0 0.0
2017-Dec-11 14:58N 36°56' W 076°23'0 0.0
2017-Dec-11 13:19N 36°56' W 076°23'0 0.0
2017-Dec-11 12:58N 36°56' W 076°23'0 0.0
2017-Dec-11 12:28N 36°56' W 076°23'0 0.0
2017-Dec-11 11:58N 36°56' W 076°23'0 0.0
2017-Dec-11 11:28N 36°56' W 076°23'0 0.0
2017-Dec-11 10:58N 36°56' W 076°23'0 0.0
2017-Dec-11 10:28N 36°56' W 076°23'0 0.0
2017-Dec-11 09:58N 36°56' W 076°23'0 0.1
2017-Dec-11 09:25N 36°56' W 076°23'0 0.0
2017-Dec-11 08:58N 36°56' W 076°23'0 0.0
2017-Dec-11 08:10N 36°56' W 076°23'0 0.0
2017-Dec-11 07:58N 36°56' W 076°23'0 0.0
2017-Dec-11 07:25N 36°56' W 076°23'0 0.0
2017-Dec-11 06:28N 36°56' W 076°23'0 0.0
2017-Dec-11 05:49N 36°56' W 076°23'0 0.0
2017-Dec-11 05:25N 36°56' W 076°23'0 0.0
2017-Dec-11 04:58N 36°56' W 076°23'0 0.0
2017-Dec-11 04:19N 36°56' W 076°23'0 0.0
2017-Dec-11 03:58N 36°56' W 076°23'0 0.0
2017-Dec-11 03:25N 36°56' W 076°23'0 0.0
2017-Dec-11 02:55N 36°56' W 076°23'0 0.0
2017-Dec-11 02:28N 36°56' W 076°23'0 0.0
2017-Dec-11 01:55N 36°56' W 076°23'0 0.0
2017-Dec-11 01:16N 36°56' W 076°23'0 0.0
2017-Dec-11 00:55N 36°56' W 076°23'0 0.0
2017-Dec-11 00:28N 36°56' W 076°23'0 0.0
2017-Dec-10 23:55N 36°56' W 076°23'0 0.0
2017-Dec-10 22:22N 36°56' W 076°23'0 0.0
2017-Dec-10 21:49N 36°56' W 076°23'0 0.0
2017-Dec-10 21:07N 36°56' W 076°23'0 0.1
2017-Dec-10 19:52N 36°56' W 076°23'0 0.0
2017-Dec-10 18:13N 36°56' W 076°23'0 0.0
2017-Dec-10 13:46N 36°56' W 076°23'0 0.0
2017-Dec-10 13:22N 36°56' W 076°23'0 0.0
2017-Dec-10 12:52N 36°56' W 076°23'0 0.0
2017-Dec-10 11:55N 36°56' W 076°23'0 0.0
2017-Dec-10 11:19N 36°56' W 076°23'0 0.0
2017-Dec-10 10:52N 36°56' W 076°23'0 0.0
2017-Dec-10 10:25N 36°56' W 076°23'0 0.0
2017-Dec-10 09:52N 36°56' W 076°23'0 0.1
2017-Dec-10 08:40N 36°56' W 076°23'1 4.8
2017-Dec-10 08:30N 36°57' W 076°22'810.8
2017-Dec-10 07:43N 37°00' W 076°12'412.2
2017-Dec-10 07:23N 36°59' W 076°07'411.8
2017-Dec-10 07:00N 36°57' W 076°02'5 9.7
2017-Dec-10 06:29N 36°57' W 075°56'4 7.9
2017-Dec-10 06:00N 36°57' W 075°51'0 0.0
2017-Dec-09 09:02N 36°57' W 075°51'0 8.3
2017-Dec-09 09:00N 36°56' W 075°51'4 8.7
2017-Dec-09 08:30N 36°56' W 075°57'5 9.4
2017-Dec-09 08:00N 36°57' W 076°02'510.9
2017-Dec-09 07:30N 36°59' W 076°09'810.2
2017-Dec-09 06:41N 36°59' W 076°19'210.7
2017-Dec-09 06:29N 36°57' W 076°21'2 0.2
2017-Dec-08 16:19N 36°56' W 076°24'0 0.0
2017-Dec-08 15:16N 36°56' W 076°24'0 0.0
2017-Dec-08 14:19N 36°56' W 076°24'0 0.2
2017-Dec-08 13:55N 36°56' W 076°24'0 0.1
2017-Dec-08 13:25N 36°56' W 076°24'0 0.0
2017-Dec-08 11:43N 36°56' W 076°24'0 0.0
2017-Dec-08 11:13N 36°56' W 076°24'0 0.0
2017-Dec-08 10:37N 36°56' W 076°24'0 0.0
2017-Dec-08 10:13N 36°56' W 076°24'0 0.0
2017-Dec-08 09:07N 36°56' W 076°24'0 0.0
2017-Dec-08 08:55N 36°56' W 076°24'0 0.0
2017-Dec-08 08:25N 36°56' W 076°24'0 0.0
2017-Dec-08 07:55N 36°56' W 076°24'0 0.1
2017-Dec-08 07:25N 36°56' W 076°24'0 0.1
2017-Dec-08 06:55N 36°56' W 076°24'0 0.1
2017-Dec-08 06:25N 36°56' W 076°24'0 0.0
2017-Dec-08 05:19N 36°56' W 076°24'0 0.0
2017-Dec-08 04:55N 36°56' W 076°24'0 0.0
2017-Dec-08 04:28N 36°56' W 076°24'0 0.0
2017-Dec-08 03:49N 36°56' W 076°24'0 0.0
2017-Dec-08 03:25N 36°56' W 076°24'0 0.0
2017-Dec-08 02:58N 36°56' W 076°24'0 0.1
2017-Dec-08 02:22N 36°56' W 076°24'0 0.1
2017-Dec-08 01:52N 36°56' W 076°24'0 0.1
2017-Dec-08 01:13N 36°56' W 076°24'0 0.0
2017-Dec-08 00:49N 36°56' W 076°24'0 0.0
2017-Dec-08 00:28N 36°56' W 076°24'0 0.0
2017-Dec-07 23:55N 36°56' W 076°24'0 0.0
2017-Dec-07 21:07N 36°56' W 076°24'0 0.0
2017-Dec-07 20:55N 36°56' W 076°24'0 0.0
2017-Dec-07 18:58N 36°56' W 076°24'0 0.1
2017-Dec-07 18:25N 36°56' W 076°24'0 0.0
2017-Dec-07 17:43N 36°56' W 076°24'0 0.0
2017-Dec-07 15:07N 36°56' W 076°24'0 0.0
2017-Dec-07 14:52N 36°56' W 076°24'0 0.0
2017-Dec-07 14:13N 36°56' W 076°24'0 0.0
2017-Dec-07 13:46N 36°56' W 076°24'0 0.2
2017-Dec-07 13:25N 36°56' W 076°24'0 0.1
2017-Dec-07 12:43N 36°56' W 076°24'0 0.0
2017-Dec-07 12:13N 36°56' W 076°24'0 0.0
2017-Dec-07 11:55N 36°56' W 076°24'0 0.0
2017-Dec-07 08:49N 36°56' W 076°24'0 0.0
2017-Dec-07 08:22N 36°56' W 076°24'0 0.0
2017-Dec-07 07:49N 36°56' W 076°24'0 0.0
2017-Dec-07 05:22N 36°56' W 076°24'0 0.2
2017-Dec-07 04:58N 36°56' W 076°24'0 0.0
2017-Dec-07 03:01N 36°56' W 076°24'0 0.0
2017-Dec-07 02:43N 36°56' W 076°24'0 0.0
2017-Dec-07 02:28N 36°56' W 076°24'0 0.0
2017-Dec-07 01:31N 36°56' W 076°24'0 0.1
2017-Dec-07 01:28N 36°56' W 076°24'0 0.1
2017-Dec-07 00:28N 36°56' W 076°24'  
2017-Dec-04 09:28N 36°56' W 076°24'0 0.0
2017-Dec-04 06:55N 36°56' W 076°24'0 0.0
2017-Dec-04 06:28N 36°56' W 076°24'0 0.0
2017-Dec-04 04:31N 36°56' W 076°24'0 0.1
2017-Dec-04 04:19N 36°56' W 076°24'0 0.0
2017-Dec-04 03:58N 36°56' W 076°24'0 0.0
2017-Dec-04 03:25N 36°56' W 076°24'0 0.0
2017-Dec-04 02:25N 36°56' W 076°24'0 0.0
2017-Dec-03 21:52N 36°56' W 076°24'0 0.0
2017-Dec-03 19:58N 36°56' W 076°24'0 0.0
2017-Dec-03 19:28N 36°56' W 076°24'0 0.0
2017-Dec-03 18:55N 36°56' W 076°24'0 0.0
2017-Dec-03 18:19N 36°56' W 076°23'0 0.0
2017-Dec-03 15:58N 36°56' W 076°24'0 0.0
2017-Dec-03 14:37N 36°56' W 076°24'0 0.0
2017-Dec-03 14:19N 36°56' W 076°24'0 0.0
2017-Dec-03 12:43N 36°56' W 076°24'0 0.0
2017-Dec-03 12:22N 36°56' W 076°24'0 0.0
2017-Dec-03 11:46N 36°56' W 076°24'0 0.0
2017-Dec-03 08:49N 36°56' W 076°24'0 0.0
2017-Dec-03 03:19N 36°56' W 076°24'0 0.2
2017-Dec-03 02:52N 36°56' W 076°24'0 0.0
2017-Dec-03 02:22N 36°56' W 076°24'0 0.0
2017-Dec-02 22:22N 36°56' W 076°24'1 3.7
2017-Dec-02 22:00N 36°57' W 076°22'712.8
2017-Dec-02 21:29N 37°01' W 076°15'712.5
2017-Dec-02 20:57N 36°59' W 076°07'511.7
2017-Dec-02 20:30N 36°57' W 076°01'5 9.6
2017-Dec-02 20:01N 36°57' W 075°55'4 8.4
2017-Dec-02 19:30N 36°57' W 075°50'  

Dump ship's entire track history